sensor_id;sensor_type;location;lat;lon;timestamp;temperature;humidity
77803;DHT22;66993;48.256;16.422;2024-03-02T00:00:16;5.3;99.0
77803;DHT22;66993;48.256;16.422;2024-03-02T00:05:17;5.8;99.0
77803;DHT22;66993;48.256;16.422;2024-03-02T00:10:16;5.5;99.0
77803;DHT22;66993;48.256;16.422;2024-03-02T00:15:24;5.3;99.0
77803;DHT22;66993;48.256;16.422;2024-03-02T00:20:16;5.3;99.0
77803;DHT22;66993;48.256;16.422;2024-03-02T00:25:16;5.3;99.0
77803;DHT22;66993;48.256;16.422;2024-03-02T00:35:16;5.3;99.0
77803;DHT22;66993;48.256;16.422;2024-03-02T00:40:16;5.1;99.0
77803;DHT22;66993;48.256;16.422;2024-03-02T00:45:16;5.1;99.0
77803;DHT22;66993;48.256;16.422;2024-03-02T00:50:16;5.3;99.0
77803;DHT22;66993;48.256;16.422;2024-03-02T00:55:16;4.8;99.0
77803;DHT22;66993;48.256;16.422;2024-03-02T01:00:16;4.7;99.0
77803;DHT22;66993;48.256;16.422;2024-03-02T01:05:16;4.8;99.0
77803;DHT22;66993;48.256;16.422;2024-03-02T01:10:16;4.4;99.0
77803;DHT22;66993;48.256;16.422;2024-03-02T01:15:16;4.1;99.0
77803;DHT22;66993;48.256;16.422;2024-03-02T01:20:16;3.9;99.0
77803;DHT22;66993;48.256;16.422;2024-03-02T01:25:16;4.0;99.0
77803;DHT22;66993;48.256;16.422;2024-03-02T01:30:16;4.1;99.0
77803;DHT22;66993;48.256;16.422;2024-03-02T01:35:16;4.2;99.0
77803;DHT22;66993;48.256;16.422;2024-03-02T01:40:16;4.6;99.0
77803;DHT22;66993;48.256;16.422;2024-03-02T01:45:16;4.7;99.0
77803;DHT22;66993;48.256;16.422;2024-03-02T01:50:16;4.9;99.0
77803;DHT22;66993;48.256;16.422;2024-03-02T01:55:16;5.1;99.0
77803;DHT22;66993;48.256;16.422;2024-03-02T02:00:16;5.3;99.0
77803;DHT22;66993;48.256;16.422;2024-03-02T02:05:16;5.1;99.0
77803;DHT22;66993;48.256;16.422;2024-03-02T02:10:16;5.0;99.0
77803;DHT22;66993;48.256;16.422;2024-03-02T02:15:24;4.9;99.0
77803;DHT22;66993;48.256;16.422;2024-03-02T02:20:16;4.5;99.0
77803;DHT22;66993;48.256;16.422;2024-03-02T02:25:16;4.3;99.0
77803;DHT22;66993;48.256;16.422;2024-03-02T02:30:18;4.6;99.0
77803;DHT22;66993;48.256;16.422;2024-03-02T02:35:16;4.3;99.0
77803;DHT22;66993;48.256;16.422;2024-03-02T02:40:16;4.2;99.0
77803;DHT22;66993;48.256;16.422;2024-03-02T02:45:16;4.2;99.0
77803;DHT22;66993;48.256;16.422;2024-03-02T02:50:16;4.2;99.0
77803;DHT22;66993;48.256;16.422;2024-03-02T02:55:16;4.7;99.0
77803;DHT22;66993;48.256;16.422;2024-03-02T03:00:16;4.9;99.0
77803;DHT22;66993;48.256;16.422;2024-03-02T03:05:16;4.5;99.0
77803;DHT22;66993;48.256;16.422;2024-03-02T03:10:16;4.6;99.0
77803;DHT22;66993;48.256;16.422;2024-03-02T03:15:16;4.6;99.0
77803;DHT22;66993;48.256;16.422;2024-03-02T03:20:16;4.4;99.0
77803;DHT22;66993;48.256;16.422;2024-03-02T03:25:16;4.1;99.0
77803;DHT22;66993;48.256;16.422;2024-03-02T03:30:16;4.2;99.0
77803;DHT22;66993;48.256;16.422;2024-03-02T03:35:16;4.6;99.0
77803;DHT22;66993;48.256;16.422;2024-03-02T03:40:16;4.7;99.0
77803;DHT22;66993;48.256;16.422;2024-03-02T03:45:16;4.7;99.0
77803;DHT22;66993;48.256;16.422;2024-03-02T03:50:16;4.8;99.0
77803;DHT22;66993;48.256;16.422;2024-03-02T03:55:16;4.7;99.0
77803;DHT22;66993;48.256;16.422;2024-03-02T04:00:16;4.6;99.0
77803;DHT22;66993;48.256;16.422;2024-03-02T04:05:16;4.5;99.0
77803;DHT22;66993;48.256;16.422;2024-03-02T04:10:16;4.5;99.0
77803;DHT22;66993;48.256;16.422;2024-03-02T04:15:16;4.3;99.0
77803;DHT22;66993;48.256;16.422;2024-03-02T04:20:16;4.2;99.0
77803;DHT22;66993;48.256;16.422;2024-03-02T04:25:16;4.0;99.0
77803;DHT22;66993;48.256;16.422;2024-03-02T04:30:16;3.9;99.0
77803;DHT22;66993;48.256;16.422;2024-03-02T04:35:16;4.0;99.0
77803;DHT22;66993;48.256;16.422;2024-03-02T04:40:16;4.1;99.0
77803;DHT22;66993;48.256;16.422;2024-03-02T04:45:16;4.2;99.0
77803;DHT22;66993;48.256;16.422;2024-03-02T04:50:16;4.2;99.0
77803;DHT22;66993;48.256;16.422;2024-03-02T04:55:16;4.2;99.0
77803;DHT22;66993;48.256;16.422;2024-03-02T05:00:16;4.3;99.0
77803;DHT22;66993;48.256;16.422;2024-03-02T05:05:16;4.4;99.0
77803;DHT22;66993;48.256;16.422;2024-03-02T05:10:16;4.5;99.0
77803;DHT22;66993;48.256;16.422;2024-03-02T05:15:16;4.5;99.0
77803;DHT22;66993;48.256;16.422;2024-03-02T05:20:16;4.6;99.0
77803;DHT22;66993;48.256;16.422;2024-03-02T05:25:16;4.7;99.0
77803;DHT22;66993;48.256;16.422;2024-03-02T05:30:16;4.8;99.0
77803;DHT22;66993;48.256;16.422;2024-03-02T05:35:16;4.7;99.0
77803;DHT22;66993;48.256;16.422;2024-03-02T05:40:16;4.7;99.0
77803;DHT22;66993;48.256;16.422;2024-03-02T05:45:16;4.8;99.0
77803;DHT22;66993;48.256;16.422;2024-03-02T05:50:16;4.9;99.0
77803;DHT22;66993;48.256;16.422;2024-03-02T05:55:16;4.9;99.0
77803;DHT22;66993;48.256;16.422;2024-03-02T06:00:16;5.0;99.0
77803;DHT22;66993;48.256;16.422;2024-03-02T06:05:16;5.1;99.0
77803;DHT22;66993;48.256;16.422;2024-03-02T06:10:16;5.1;99.0
77803;DHT22;66993;48.256;16.422;2024-03-02T06:15:16;5.3;99.0
77803;DHT22;66993;48.256;16.422;2024-03-02T06:20:16;5.3;99.0
77803;DHT22;66993;48.256;16.422;2024-03-02T06:25:16;5.4;99.0
77803;DHT22;66993;48.256;16.422;2024-03-02T06:30:16;5.5;99.0
77803;DHT22;66993;48.256;16.422;2024-03-02T06:35:16;5.6;99.0
77803;DHT22;66993;48.256;16.422;2024-03-02T06:40:16;5.7;99.0
77803;DHT22;66993;48.256;16.422;2024-03-02T06:45:16;5.8;99.0
77803;DHT22;66993;48.256;16.422;2024-03-02T06:50:16;5.9;99.0
77803;DHT22;66993;48.256;16.422;2024-03-02T06:55:16;5.9;99.0
77803;DHT22;66993;48.256;16.422;2024-03-02T07:00:16;6.0;99.0
77803;DHT22;66993;48.256;16.422;2024-03-02T07:05:16;6.1;99.0
77803;DHT22;66993;48.256;16.422;2024-03-02T07:10:16;6.2;99.0
77803;DHT22;66993;48.256;16.422;2024-03-02T07:15:16;6.2;99.0
77803;DHT22;66993;48.256;16.422;2024-03-02T07:20:16;6.4;99.0
77803;DHT22;66993;48.256;16.422;2024-03-02T07:25:16;6.5;99.0
77803;DHT22;66993;48.256;16.422;2024-03-02T07:30:16;6.7;99.0
77803;DHT22;66993;48.256;16.422;2024-03-02T07:35:16;6.7;99.0
77803;DHT22;66993;48.256;16.422;2024-03-02T07:40:16;6.9;99.0
77803;DHT22;66993;48.256;16.422;2024-03-02T07:45:16;6.9;99.0
77803;DHT22;66993;48.256;16.422;2024-03-02T07:50:16;7.1;99.0
77803;DHT22;66993;48.256;16.422;2024-03-02T07:55:16;7.0;99.0
77803;DHT22;66993;48.256;16.422;2024-03-02T08:00:16;6.8;99.0
77803;DHT22;66993;48.256;16.422;2024-03-02T08:05:16;7.0;99.0
77803;DHT22;66993;48.256;16.422;2024-03-02T08:10:16;7.0;99.0
77803;DHT22;66993;48.256;16.422;2024-03-02T08:15:16;7.1;99.0
77803;DHT22;66993;48.256;16.422;2024-03-02T08:20:16;7.2;99.0
77803;DHT22;66993;48.256;16.422;2024-03-02T08:25:16;7.2;99.0
77803;DHT22;66993;48.256;16.422;2024-03-02T08:30:16;7.4;99.0
77803;DHT22;66993;48.256;16.422;2024-03-02T08:35:16;7.4;99.0
77803;DHT22;66993;48.256;16.422;2024-03-02T08:40:16;7.5;99.0
77803;DHT22;66993;48.256;16.422;2024-03-02T08:45:16;7.6;99.0
77803;DHT22;66993;48.256;16.422;2024-03-02T08:50:16;7.6;99.0
77803;DHT22;66993;48.256;16.422;2024-03-02T08:55:16;7.5;99.0
77803;DHT22;66993;48.256;16.422;2024-03-02T09:00:16;7.8;99.0
77803;DHT22;66993;48.256;16.422;2024-03-02T09:05:16;8.0;99.0
77803;DHT22;66993;48.256;16.422;2024-03-02T09:10:16;7.8;99.0
77803;DHT22;66993;48.256;16.422;2024-03-02T09:15:16;8.2;99.0
77803;DHT22;66993;48.256;16.422;2024-03-02T09:20:16;8.7;99.0
77803;DHT22;66993;48.256;16.422;2024-03-02T09:25:16;9.2;99.0
77803;DHT22;66993;48.256;16.422;2024-03-02T09:30:16;9.2;99.0
77803;DHT22;66993;48.256;16.422;2024-03-02T09:35:16;9.2;99.0
77803;DHT22;66993;48.256;16.422;2024-03-02T09:40:16;9.5;99.0
77803;DHT22;66993;48.256;16.422;2024-03-02T09:45:16;9.8;99.0
77803;DHT22;66993;48.256;16.422;2024-03-02T09:50:16;10.1;99.0
77803;DHT22;66993;48.256;16.422;2024-03-02T09:55:16;10.1;99.0
77803;DHT22;66993;48.256;16.422;2024-03-02T10:00:16;10.6;99.0
77803;DHT22;66993;48.256;16.422;2024-03-02T10:05:24;11.0;99.0
77803;DHT22;66993;48.256;16.422;2024-03-02T10:10:16;10.9;99.0
77803;DHT22;66993;48.256;16.422;2024-03-02T10:15:23;11.9;99.0
77803;DHT22;66993;48.256;16.422;2024-03-02T10:20:24;11.8;99.0
77803;DHT22;66993;48.256;16.422;2024-03-02T10:25:28;12.1;98.0
77803;DHT22;66993;48.256;16.422;2024-03-02T10:30:16;12.1;97.0
77803;DHT22;66993;48.256;16.422;2024-03-02T10:35:16;12.3;96.0
77803;DHT22;66993;48.256;16.422;2024-03-02T10:40:16;12.3;95.0
77803;DHT22;66993;48.256;16.422;2024-03-02T10:45:16;12.1;94.0
77803;DHT22;66993;48.256;16.422;2024-03-02T10:50:16;12.2;93.0
77803;DHT22;66993;48.256;16.422;2024-03-02T10:55:16;11.9;92.0
77803;DHT22;66993;48.256;16.422;2024-03-02T11:00:17;12.0;90.0
77803;DHT22;66993;48.256;16.422;2024-03-02T11:05:19;12.0;90.0
77803;DHT22;66993;48.256;16.422;2024-03-02T11:10:16;11.7;88.0
77803;DHT22;66993;48.256;16.422;2024-03-02T11:15:17;12.1;88.0
77803;DHT22;66993;48.256;16.422;2024-03-02T11:20:16;11.9;88.0
77803;DHT22;66993;48.256;16.422;2024-03-02T11:25:23;11.7;87.0
77803;DHT22;66993;48.256;16.422;2024-03-02T11:30:28;11.8;87.0
77803;DHT22;66993;48.256;16.422;2024-03-02T11:35:16;11.5;86.0
77803;DHT22;66993;48.256;16.422;2024-03-02T11:40:16;11.6;86.0
77803;DHT22;66993;48.256;16.422;2024-03-02T11:45:16;11.6;86.0
77803;DHT22;66993;48.256;16.422;2024-03-02T11:50:18;11.4;86.0
77803;DHT22;66993;48.256;16.422;2024-03-02T11:55:16;11.7;86.0
77803;DHT22;66993;48.256;16.422;2024-03-02T12:00:16;11.9;86.0
77803;DHT22;66993;48.256;16.422;2024-03-02T12:05:16;12.0;85.0
77803;DHT22;66993;48.256;16.422;2024-03-02T12:10:16;12.0;85.0
77803;DHT22;66993;48.256;16.422;2024-03-02T12:15:16;12.0;85.0
77803;DHT22;66993;48.256;16.422;2024-03-02T12:20:16;12.0;84.0
77803;DHT22;66993;48.256;16.422;2024-03-02T12:25:16;12.1;84.0
77803;DHT22;66993;48.256;16.422;2024-03-02T12:30:16;12.3;84.0
77803;DHT22;66993;48.256;16.422;2024-03-02T12:35:17;12.6;84.0
77803;DHT22;66993;48.256;16.422;2024-03-02T12:40:16;12.4;84.0
77803;DHT22;66993;48.256;16.422;2024-03-02T12:45:16;12.3;84.0
77803;DHT22;66993;48.256;16.422;2024-03-02T12:50:17;12.8;83.0
77803;DHT22;66993;48.256;16.422;2024-03-02T12:55:16;12.7;82.0
77803;DHT22;66993;48.256;16.422;2024-03-02T13:00:17;13.3;81.0
77803;DHT22;66993;48.256;16.422;2024-03-02T13:05:16;13.3;80.0
77803;DHT22;66993;48.256;16.422;2024-03-02T13:10:16;13.1;79.0
77803;DHT22;66993;48.256;16.422;2024-03-02T13:15:16;13.1;79.0
77803;DHT22;66993;48.256;16.422;2024-03-02T13:20:16;13.3;79.0
77803;DHT22;66993;48.256;16.422;2024-03-02T13:25:16;13.6;78.0
77803;DHT22;66993;48.256;16.422;2024-03-02T13:30:16;13.5;78.0
77803;DHT22;66993;48.256;16.422;2024-03-02T13:35:16;13.5;78.0
77803;DHT22;66993;48.256;16.422;2024-03-02T13:40:16;13.0;79.0
77803;DHT22;66993;48.256;16.422;2024-03-02T13:45:16;13.5;78.0
77803;DHT22;66993;48.256;16.422;2024-03-02T13:50:16;13.3;78.0
77803;DHT22;66993;48.256;16.422;2024-03-02T13:55:16;13.3;79.0
77803;DHT22;66993;48.256;16.422;2024-03-02T14:00:16;13.3;80.0
77803;DHT22;66993;48.256;16.422;2024-03-02T14:05:16;13.0;80.0
77803;DHT22;66993;48.256;16.422;2024-03-02T14:10:16;12.7;80.0
77803;DHT22;66993;48.256;16.422;2024-03-02T14:15:16;12.6;80.0
77803;DHT22;66993;48.256;16.422;2024-03-02T14:20:16;12.6;80.0
77803;DHT22;66993;48.256;16.422;2024-03-02T14:25:16;12.7;81.0
77803;DHT22;66993;48.256;16.422;2024-03-02T14:30:16;12.8;81.0
77803;DHT22;66993;48.256;16.422;2024-03-02T14:35:16;12.7;81.0
77803;DHT22;66993;48.256;16.422;2024-03-02T14:40:16;12.9;81.0
77803;DHT22;66993;48.256;16.422;2024-03-02T14:45:16;12.6;81.0
77803;DHT22;66993;48.256;16.422;2024-03-02T14:50:16;12.5;81.0
77803;DHT22;66993;48.256;16.422;2024-03-02T14:55:16;12.3;81.0
77803;DHT22;66993;48.256;16.422;2024-03-02T15:00:16;12.2;81.0
77803;DHT22;66993;48.256;16.422;2024-03-02T15:05:16;12.3;81.0
77803;DHT22;66993;48.256;16.422;2024-03-02T15:10:16;12.1;81.0
77803;DHT22;66993;48.256;16.422;2024-03-02T15:15:16;11.9;81.0
77803;DHT22;66993;48.256;16.422;2024-03-02T15:20:16;11.8;81.0
77803;DHT22;66993;48.256;16.422;2024-03-02T15:25:16;11.9;81.0
77803;DHT22;66993;48.256;16.422;2024-03-02T15:30:16;11.8;82.0
77803;DHT22;66993;48.256;16.422;2024-03-02T15:35:16;11.7;82.0
77803;DHT22;66993;48.256;16.422;2024-03-02T15:40:16;11.7;83.0
77803;DHT22;66993;48.256;16.422;2024-03-02T15:45:16;11.6;83.0
77803;DHT22;66993;48.256;16.422;2024-03-02T15:50:16;11.5;83.0
77803;DHT22;66993;48.256;16.422;2024-03-02T15:55:16;11.3;83.0
77803;DHT22;66993;48.256;16.422;2024-03-02T16:00:16;11.2;83.0
77803;DHT22;66993;48.256;16.422;2024-03-02T16:05:16;11.1;84.0
77803;DHT22;66993;48.256;16.422;2024-03-02T16:10:16;10.9;85.0
77803;DHT22;66993;48.256;16.422;2024-03-02T16:15:16;10.8;85.0
77803;DHT22;66993;48.256;16.422;2024-03-02T16:20:16;10.7;86.0
77803;DHT22;66993;48.256;16.422;2024-03-02T16:25:16;10.6;86.0
77803;DHT22;66993;48.256;16.422;2024-03-02T16:30:16;10.6;86.0
77803;DHT22;66993;48.256;16.422;2024-03-02T16:35:16;10.5;87.0
77803;DHT22;66993;48.256;16.422;2024-03-02T16:40:16;10.5;87.0
77803;DHT22;66993;48.256;16.422;2024-03-02T16:45:16;10.4;87.0
77803;DHT22;66993;48.256;16.422;2024-03-02T16:50:16;10.3;88.0
77803;DHT22;66993;48.256;16.422;2024-03-02T16:55:16;10.2;88.0
77803;DHT22;66993;48.256;16.422;2024-03-02T17:00:16;10.1;88.0
77803;DHT22;66993;48.256;16.422;2024-03-02T17:05:16;10.0;88.0
77803;DHT22;66993;48.256;16.422;2024-03-02T17:10:16;9.9;89.0
77803;DHT22;66993;48.256;16.422;2024-03-02T17:15:16;9.9;89.0
77803;DHT22;66993;48.256;16.422;2024-03-02T17:20:16;9.8;89.0
77803;DHT22;66993;48.256;16.422;2024-03-02T17:25:16;9.8;90.0
77803;DHT22;66993;48.256;16.422;2024-03-02T17:30:16;9.7;90.0
77803;DHT22;66993;48.256;16.422;2024-03-02T17:35:16;9.6;90.0
77803;DHT22;66993;48.256;16.422;2024-03-02T17:40:16;9.6;91.0
77803;DHT22;66993;48.256;16.422;2024-03-02T17:45:16;9.6;91.0
77803;DHT22;66993;48.256;16.422;2024-03-02T17:50:16;9.6;91.0
77803;DHT22;66993;48.256;16.422;2024-03-02T17:55:16;9.6;91.0
77803;DHT22;66993;48.256;16.422;2024-03-02T18:00:16;9.6;91.0
77803;DHT22;66993;48.256;16.422;2024-03-02T18:05:16;9.5;92.0
77803;DHT22;66993;48.256;16.422;2024-03-02T18:10:16;9.4;92.0
77803;DHT22;66993;48.256;16.422;2024-03-02T18:15:16;9.2;92.0
77803;DHT22;66993;48.256;16.422;2024-03-02T18:20:16;9.0;92.0
77803;DHT22;66993;48.256;16.422;2024-03-02T18:25:16;8.8;92.0
77803;DHT22;66993;48.256;16.422;2024-03-02T18:30:16;8.7;93.0
77803;DHT22;66993;48.256;16.422;2024-03-02T18:35:16;8.6;93.0
77803;DHT22;66993;48.256;16.422;2024-03-02T18:40:16;8.6;93.0
77803;DHT22;66993;48.256;16.422;2024-03-02T18:45:16;8.5;93.0
77803;DHT22;66993;48.256;16.422;2024-03-02T18:50:16;8.3;93.0
77803;DHT22;66993;48.256;16.422;2024-03-02T18:55:16;8.2;94.0
77803;DHT22;66993;48.256;16.422;2024-03-02T19:00:16;8.2;94.0
77803;DHT22;66993;48.256;16.422;2024-03-02T19:05:16;8.1;94.0
77803;DHT22;66993;48.256;16.422;2024-03-02T19:10:16;8.0;94.0
77803;DHT22;66993;48.256;16.422;2024-03-02T19:15:16;7.9;94.0
77803;DHT22;66993;48.256;16.422;2024-03-02T19:20:16;7.9;94.0
77803;DHT22;66993;48.256;16.422;2024-03-02T19:25:16;7.9;95.0
77803;DHT22;66993;48.256;16.422;2024-03-02T19:30:16;7.9;95.0
77803;DHT22;66993;48.256;16.422;2024-03-02T19:35:16;7.9;95.0
77803;DHT22;66993;48.256;16.422;2024-03-02T19:40:16;7.9;95.0
77803;DHT22;66993;48.256;16.422;2024-03-02T19:45:16;7.8;95.0
77803;DHT22;66993;48.256;16.422;2024-03-02T19:50:16;7.8;96.0
77803;DHT22;66993;48.256;16.422;2024-03-02T19:55:16;7.7;96.0
77803;DHT22;66993;48.256;16.422;2024-03-02T20:00:16;7.8;96.0
77803;DHT22;66993;48.256;16.422;2024-03-02T20:05:16;7.9;96.0
77803;DHT22;66993;48.256;16.422;2024-03-02T20:10:17;8.0;96.0
77803;DHT22;66993;48.256;16.422;2024-03-02T20:15:16;7.8;96.0
77803;DHT22;66993;48.256;16.422;2024-03-02T20:20:16;7.8;96.0
77803;DHT22;66993;48.256;16.422;2024-03-02T20:25:16;7.6;97.0
77803;DHT22;66993;48.256;16.422;2024-03-02T20:30:16;7.6;97.0
77803;DHT22;66993;48.256;16.422;2024-03-02T20:35:16;7.6;97.0
77803;DHT22;66993;48.256;16.422;2024-03-02T20:40:16;7.5;97.0
77803;DHT22;66993;48.256;16.422;2024-03-02T20:45:16;7.5;97.0
77803;DHT22;66993;48.256;16.422;2024-03-02T20:50:16;7.5;97.0
77803;DHT22;66993;48.256;16.422;2024-03-02T20:55:16;7.6;97.0
77803;DHT22;66993;48.256;16.422;2024-03-02T21:00:16;7.6;97.0
77803;DHT22;66993;48.256;16.422;2024-03-02T21:05:16;7.5;97.0
77803;DHT22;66993;48.256;16.422;2024-03-02T21:10:16;7.4;97.0
77803;DHT22;66993;48.256;16.422;2024-03-02T21:15:16;7.6;97.0
77803;DHT22;66993;48.256;16.422;2024-03-02T21:20:16;7.5;97.0
77803;DHT22;66993;48.256;16.422;2024-03-02T21:25:16;7.5;97.0
77803;DHT22;66993;48.256;16.422;2024-03-02T21:30:16;7.4;98.0
77803;DHT22;66993;48.256;16.422;2024-03-02T21:35:16;7.5;98.0
77803;DHT22;66993;48.256;16.422;2024-03-02T21:40:16;7.4;98.0
77803;DHT22;66993;48.256;16.422;2024-03-02T21:45:16;7.3;98.0
77803;DHT22;66993;48.256;16.422;2024-03-02T21:50:16;7.2;98.0
77803;DHT22;66993;48.256;16.422;2024-03-02T21:55:16;7.3;98.0
77803;DHT22;66993;48.256;16.422;2024-03-02T22:00:16;7.4;98.0
77803;DHT22;66993;48.256;16.422;2024-03-02T22:05:16;7.4;98.0
77803;DHT22;66993;48.256;16.422;2024-03-02T22:10:16;7.5;98.0
77803;DHT22;66993;48.256;16.422;2024-03-02T22:15:16;7.5;98.0
77803;DHT22;66993;48.256;16.422;2024-03-02T22:20:16;7.5;98.0
77803;DHT22;66993;48.256;16.422;2024-03-02T22:25:16;7.6;98.0
77803;DHT22;66993;48.256;16.422;2024-03-02T22:30:16;7.6;98.0
77803;DHT22;66993;48.256;16.422;2024-03-02T22:35:16;7.7;98.0
77803;DHT22;66993;48.256;16.422;2024-03-02T22:40:16;7.8;98.0
77803;DHT22;66993;48.256;16.422;2024-03-02T22:45:16;8.0;98.0
77803;DHT22;66993;48.256;16.422;2024-03-02T22:50:16;8.1;98.0
77803;DHT22;66993;48.256;16.422;2024-03-02T22:55:16;8.2;98.0
77803;DHT22;66993;48.256;16.422;2024-03-02T23:00:16;8.2;98.0
77803;DHT22;66993;48.256;16.422;2024-03-02T23:05:16;8.2;98.0
77803;DHT22;66993;48.256;16.422;2024-03-02T23:10:16;8.2;98.0
77803;DHT22;66993;48.256;16.422;2024-03-02T23:15:16;8.2;98.0
77803;DHT22;66993;48.256;16.422;2024-03-02T23:20:16;8.2;98.0
77803;DHT22;66993;48.256;16.422;2024-03-02T23:25:16;8.2;98.0
77803;DHT22;66993;48.256;16.422;2024-03-02T23:30:16;8.2;98.0
77803;DHT22;66993;48.256;16.422;2024-03-02T23:35:16;8.1;98.0
77803;DHT22;66993;48.256;16.422;2024-03-02T23:40:16;8.2;98.0
77803;DHT22;66993;48.256;16.422;2024-03-02T23:45:16;8.2;98.0
77803;DHT22;66993;48.256;16.422;2024-03-02T23:50:16;8.1;98.0
77803;DHT22;66993;48.256;16.422;2024-03-02T23:55:16;8.1;98.0
